Anamur, Turkey
Current Conditions -  °F | °C
As of 4:50 AM on Saturday 29 Nov 2014 (Local Time) from LCEN Reporting Station
Scattered Clouds Scattered Clouds  
Wind Chill: 11°   Ceiling: Unl
Heat Index: 11°   Visibility: 6mi
Dew Point:   Wind: 7mph
Humidity: 82%   Direction: 290°WNW
Pressure: 30.21"   Gusts: NA
Location:  36.08°N, 32.84°E
Report Text: LCEN 290150Z 29006KT 9999 FEW025 SCT040 11/08 Q1023 NOSIG
Loading
Personal Weather Stations






























Interactive Weather Map New forecast layout! Learn more

10-Day Weather Forecast

Advertisements
Track Severe Weather on mobile